Time;durP1;ratioP1;P1;durP2;ratioP2;P2;SDS_P1;SDS_P2;PMS_P1;PMS_P2;Temp;Humidity;BMP_temperature;BMP_pressure;BME280_temperature;BME280_humidity;BME280_pressure;Samples;Min_cycle;Max_cycle;Signal;HPM_P1;HPM_P2
2022/03/30 00:01:45;;;;;;;21.40;13.58;;;;;;;9.17;61.72;99356.33;1754484;80;21543;-52
2022/03/30 00:04:11;;;;;;;21.45;13.72;;;;;;;9.14;61.80;99350.53;1748382;80;21161;-53
2022/03/30 00:06:39;;;;;;;17.00;11.33;;;;;;;9.10;61.93;99347.36;1760967;80;21050;-53
2022/03/30 00:09:06;;;;;;;19.42;12.68;;;;;;;9.10;61.96;99348.67;1749859;80;21074;-52
2022/03/30 00:11:34;;;;;;;19.95;13.00;;;;;;;9.08;61.95;99347.99;1747497;80;21102;-53
2022/03/30 00:14:01;;;;;;;23.10;12.93;;;;;;;9.07;61.94;99350.26;1747193;80;21090;-53
2022/03/30 00:16:29;;;;;;;18.12;12.35;;;;;;;9.10;61.92;99349.98;1721835;82;21051;-53
2022/03/30 00:18:56;;;;;;;21.95;13.05;;;;;;;9.15;61.80;99354.83;1710856;82;21021;-53
2022/03/30 00:21:23;;;;;;;20.20;12.43;;;;;;;9.17;61.76;99361.58;1698715;83;21050;-53
2022/03/30 00:23:50;;;;;;;22.00;12.88;;;;;;;9.17;61.73;99364.69;1706212;82;21514;-53
2022/03/30 00:26:17;;;;;;;19.10;12.70;;;;;;;9.14;61.77;99359.22;1745214;81;21031;-53
2022/03/30 00:28:43;;;;;;;21.55;13.15;;;;;;;9.10;61.77;99354.73;1720316;82;21094;-53
2022/03/30 00:31:11;;;;;;;23.15;13.62;;;;;;;9.05;61.79;99354.33;1715170;82;21745;-53
2022/03/30 00:33:39;;;;;;;19.60;13.40;;;;;;;9.00;61.90;99360.97;1748452;80;21058;-53
2022/03/30 00:36:06;;;;;;;21.12;13.65;;;;;;;8.93;62.02;99362.82;1751384;80;21150;-53
2022/03/30 00:38:32;;;;;;;21.12;12.65;;;;;;;8.84;62.19;99357.09;1746586;80;21575;-53
2022/03/30 00:41:01;;;;;;;15.70;11.05;;;;;;;8.83;62.30;99363.30;1753246;79;20976;-53
2022/03/30 00:43:28;;;;;;;15.68;11.30;;;;;;;8.88;62.20;99360.27;1743391;80;21168;-53
2022/03/30 00:45:56;;;;;;;16.62;12.03;;;;;;;8.91;62.16;99366.07;1752073;80;21077;-54
2022/03/30 00:48:23;;;;;;;24.87;12.13;;;;;;;8.97;62.23;99365.17;1757863;80;22117;-53
2022/03/30 00:50:50;;;;;;;21.97;12.88;;;;;;;8.98;62.27;99357.17;1752116;80;21082;-53
2022/03/30 00:53:16;;;;;;;20.90;13.48;;;;;;;9.03;62.26;99357.58;1753233;80;21057;-53
2022/03/30 00:55:45;;;;;;;19.55;12.63;;;;;;;9.03;62.16;99357.58;1719828;82;21137;-54
2022/03/30 00:58:12;;;;;;;23.25;12.82;;;;;;;9.01;62.09;99355.59;1753085;80;21038;-53
2022/03/30 01:00:39;;;;;;;21.50;13.68;;;;;;;8.98;62.13;99346.67;1729380;81;21480;-53
2022/03/30 01:03:05;;;;;;;20.75;14.23;;;;;;;8.99;62.21;99351.42;1707796;82;21047;-53
2022/03/30 01:05:32;;;;;;;24.07;13.65;;;;;;;8.99;62.28;99347.49;1733237;82;21063;-53
2022/03/30 01:08:28;;;;;;;21.73;13.55;;;;;;;8.99;62.30;99350.11;1674764;84;21074;-53
2022/03/30 01:10:55;;;;;;;23.32;14.53;;;;;;;8.95;62.47;99346.13;1642117;85;21066;-53
2022/03/30 01:13:21;;;;;;;23.12;14.15;;;;;;;8.92;62.54;99349.34;1667417;84;21124;-53
2022/03/30 01:15:49;;;;;;;19.07;12.55;;;;;;;8.93;62.60;99344.95;1717716;81;21063;-53
2022/03/30 01:18:16;;;;;;;20.32;11.90;;;;;;;8.95;62.56;99336.94;1725386;81;21031;-53
2022/03/30 01:20:49;;;;;;;21.52;11.97;;;;;;;9.04;62.66;99336.91;1716287;81;21506;-53
2022/03/30 01:23:17;;;;;;;20.77;13.45;;;;;;;9.15;62.61;99334.65;1721243;81;21046;-54
2022/03/30 01:25:46;;;;;;;19.35;13.50;;;;;;;9.24;62.59;99334.29;1725366;81;21093;-54
2022/03/30 01:28:12;;;;;;;21.00;13.70;;;;;;;9.25;62.42;99333.33;1717686;81;21592;-54
2022/03/30 01:33:26;;;;;;;21.20;13.68;;;;;;;9.24;62.37;99336.91;1725821;82;21122;-53
2022/03/30 01:35:53;;;;;;;20.08;12.25;;;;;;;9.22;62.35;99331.80;1727528;81;21063;-54
2022/03/30 01:38:20;;;;;;;17.17;12.65;;;;;;;9.20;62.55;99330.30;1717027;81;22133;-54
2022/03/30 01:41:40;;;;;;;17.90;12.60;;;;;;;9.17;62.96;99318.27;1872502;75;22525;-53
2022/03/30 01:44:07;;;;;;;22.22;14.43;;;;;;;9.13;62.97;99322.63;1836708;77;21635;-53
2022/03/30 01:46:38;;;;;;;20.37;13.10;;;;;;;9.07;62.94;99318.27;1827724;77;21108;-53
2022/03/30 01:49:05;;;;;;;19.45;14.47;;;;;;;9.03;63.01;99319.53;1828218;77;21002;-54
2022/03/30 01:51:32;;;;;;;19.02;12.23;;;;;;;9.01;63.07;99323.25;1836506;77;20966;-54
2022/03/30 01:53:59;;;;;;;17.50;12.65;;;;;;;9.00;62.99;99323.74;1835913;77;20996;-53
2022/03/30 01:56:25;;;;;;;18.17;12.03;;;;;;;9.06;62.98;99325.82;1834389;77;21026;-54
2022/03/30 01:58:52;;;;;;;22.65;12.65;;;;;;;9.11;62.98;99327.55;1831167;77;21067;-53
2022/03/30 02:01:20;;;;;;;21.02;13.38;;;;;;;9.14;63.00;99325.11;1830995;77;20958;-54
2022/03/30 02:03:47;;;;;;;21.07;13.60;;;;;;;9.15;63.12;99332.02;1835199;77;20998;-53
2022/03/30 02:06:15;;;;;;;19.73;13.30;;;;;;;9.15;63.18;99329.40;1828178;77;21397;-53
2022/03/30 02:08:42;;;;;;;19.57;13.85;;;;;;;9.16;63.25;99332.84;1832076;77;20998;-54
2022/03/30 02:11:08;;;;;;;22.25;13.38;;;;;;;9.17;63.18;99335.83;1835630;77;21944;-54
2022/03/30 02:13:35;;;;;;;21.20;13.83;;;;;;;9.15;63.21;99330.71;1836495;77;21023;-54
2022/03/30 02:16:04;;;;;;;20.72;12.40;;;;;;;9.13;63.20;99331.80;1832511;77;21042;-54
2022/03/30 02:18:31;;;;;;;19.40;12.00;;;;;;;9.10;63.29;99339.48;1835532;77;21525;-54
2022/03/30 02:20:58;;;;;;;17.45;12.28;;;;;;;9.03;62.99;99346.27;1833736;77;21014;-54
2022/03/30 02:23:25;;;;;;;19.05;13.18;;;;;;;8.94;62.88;99346.58;1833234;77;21239;-53
2022/03/30 02:25:51;;;;;;;18.48;12.58;;;;;;;8.87;63.05;99335.81;1817107;77;21667;-54
2022/03/30 02:28:18;;;;;;;19.50;13.15;;;;;;;8.87;63.08;99339.75;1819025;78;21038;-54
2022/03/30 02:30:45;;;;;;;22.30;12.53;;;;;;;8.94;63.07;99342.65;1821172;77;21083;-53
2022/03/30 02:33:12;;;;;;;21.95;12.30;;;;;;;8.98;63.04;99328.77;1814843;77;21046;-54
2022/03/30 02:35:39;;;;;;;21.70;13.65;;;;;;;9.03;62.99;99328.72;1822410;77;21153;-54
2022/03/30 02:38:05;;;;;;;20.82;13.10;;;;;;;9.06;62.99;99328.91;1825730;77;21026;-54
2022/03/30 02:40:33;;;;;;;18.37;12.90;;;;;;;9.10;62.74;99331.13;1824127;77;21054;-53
2022/03/30 02:42:59;;;;;;;19.15;13.53;;;;;;;9.13;62.42;99331.80;1827439;78;21045;-54
2022/03/30 02:45:26;;;;;;;21.82;13.85;;;;;;;9.10;62.40;99335.06;1814779;78;21020;-54
2022/03/30 02:50:38;;;;;;;24.32;13.15;;;;;;;9.02;62.38;99332.79;1820251;78;21474;-54
2022/03/30 02:53:05;;;;;;;19.17;12.70;;;;;;;8.95;62.68;99326.45;1825452;76;21467;-54
2022/03/30 02:55:33;;;;;;;18.23;13.25;;;;;;;8.85;62.73;99319.88;1813474;77;21081;-54
2022/03/30 02:58:00;;;;;;;18.32;12.45;;;;;;;8.79;62.68;99319.11;1821149;78;21097;-54
2022/03/30 03:00:27;;;;;;;19.10;13.08;;;;;;;8.74;62.85;99312.50;1820659;76;21129;-54
2022/03/30 03:02:54;;;;;;;19.27;12.70;;;;;;;8.77;62.93;99323.67;1820670;77;21525;-53
2022/03/30 03:05:21;;;;;;;18.57;12.80;;;;;;;8.77;62.83;99319.24;1825467;78;21010;-53
2022/03/30 03:07:47;;;;;;;21.20;13.28;;;;;;;8.80;62.93;99315.53;1822881;76;21077;-54
2022/03/30 03:10:15;;;;;;;17.52;12.63;;;;;;;8.80;63.14;99314.22;1826677;77;21092;-54
2022/03/30 03:12:42;;;;;;;18.35;11.95;;;;;;;8.84;63.63;99320.38;1827045;78;21141;-54
2022/03/30 03:15:10;;;;;;;22.87;13.48;;;;;;;8.88;63.78;99309.12;1820606;77;21029;-54
2022/03/30 03:17:36;;;;;;;22.60;12.98;;;;;;;8.87;63.77;99307.45;1820423;78;21144;-54
2022/03/30 03:20:05;;;;;;;18.75;12.25;;;;;;;8.83;64.11;99310.02;1828168;77;20990;-54
2022/03/30 03:22:32;;;;;;;18.32;11.80;;;;;;;8.82;64.40;99307.03;1840534;77;21034;-54
2022/03/30 03:24:59;;;;;;;20.88;13.18;;;;;;;8.76;64.36;99310.20;1825997;76;21133;-54
2022/03/30 03:27:26;;;;;;;18.23;12.68;;;;;;;8.68;64.51;99307.79;1829832;78;20975;-54
2022/03/30 03:29:52;;;;;;;18.60;12.05;;;;;;;8.68;64.72;99310.91;1816774;77;21497;-54
2022/03/30 03:32:20;;;;;;;19.37;12.18;;;;;;;8.70;64.86;99315.03;1798215;79;20994;-53
2022/03/30 03:34:49;;;;;;;19.30;12.78;;;;;;;8.71;64.76;99320.63;1805100;77;21508;-54
2022/03/30 03:37:16;;;;;;;19.60;12.40;;;;;;;8.69;64.90;99320.41;1801338;78;21235;-53
2022/03/30 03:39:43;;;;;;;18.25;13.20;;;;;;;8.68;65.17;99322.70;1824416;76;21053;-54
2022/03/30 03:42:10;;;;;;;20.50;12.80;;;;;;;8.65;65.17;99322.48;1821371;78;21026;-54
2022/03/30 03:44:37;;;;;;;22.35;13.70;;;;;;;8.64;65.32;99322.16;1822458;77;21116;-53
2022/03/30 03:47:07;;;;;;;18.17;13.25;;;;;;;8.63;65.20;99319.66;1823354;77;21037;-54
2022/03/30 03:49:33;;;;;;;23.12;14.50;;;;;;;8.57;65.32;99321.02;1822314;78;21101;-53
2022/03/30 03:52:00;;;;;;;23.02;14.07;;;;;;;8.54;65.55;99321.31;1824333;77;21076;-53
2022/03/30 03:54:27;;;;;;;17.87;13.05;;;;;;;8.52;65.58;99328.00;1820627;77;21510;-53
2022/03/30 03:56:54;;;;;;;19.05;13.15;;;;;;;8.45;65.52;99332.59;1818911;77;21112;-54
2022/03/30 03:59:20;;;;;;;22.27;14.33;;;;;;;8.40;65.51;99330.83;1816197;77;21070;-54
2022/03/30 04:01:47;;;;;;;23.77;15.28;;;;;;;8.40;65.63;99330.34;1810139;77;21135;-53
2022/03/30 04:04:13;;;;;;;26.80;16.42;;;;;;;8.44;65.72;99340.95;1829020;77;20971;-54
2022/03/30 04:06:40;;;;;;;25.95;17.92;;;;;;;8.47;65.70;99339.38;1824663;77;21050;-54
2022/03/30 04:09:06;;;;;;;26.70;17.35;;;;;;;8.49;65.65;99336.59;1838078;77;21292;-53
2022/03/30 04:11:35;;;;;;;27.80;19.77;;;;;;;8.48;65.83;99342.81;1831378;77;21454;-54
2022/03/30 04:14:03;;;;;;;33.10;22.00;;;;;;;8.50;65.73;99351.38;1833542;77;21925;-53
2022/03/30 04:16:29;;;;;;;39.67;23.52;;;;;;;8.47;65.61;99351.64;1815027;77;21133;-54
2022/03/30 04:18:58;;;;;;;40.52;23.45;;;;;;;8.47;65.53;99350.33;1821155;77;20979;-53
2022/03/30 04:21:24;;;;;;;31.33;21.02;;;;;;;8.45;65.45;99355.70;1812346;77;21572;-54
2022/03/30 04:23:51;;;;;;;27.60;18.02;;;;;;;8.47;65.53;99362.13;1824206;77;21029;-53
2022/03/30 04:26:18;;;;;;;24.57;16.15;;;;;;;8.46;65.51;99363.92;1804491;77;21138;-54
2022/03/30 04:28:46;;;;;;;21.82;15.15;;;;;;;8.49;65.37;99364.97;1799880;78;21413;-54
2022/03/30 04:31:13;;;;;;;25.72;15.00;;;;;;;8.58;65.14;99373.81;1813515;77;21038;-54
2022/03/30 04:33:40;;;;;;;23.12;15.98;;;;;;;8.65;65.07;99368.37;1792658;78;20995;-54
2022/03/30 04:36:06;;;;;;;23.35;14.75;;;;;;;8.72;64.97;99376.53;1803818;77;21107;-54
2022/03/30 04:38:34;;;;;;;25.50;14.68;;;;;;;8.74;65.01;99387.25;1824073;77;21041;-53
2022/03/30 04:41:01;;;;;;;23.12;15.20;;;;;;;8.83;64.92;99395.27;1812826;77;21007;-53
2022/03/30 04:43:28;;;;;;;23.47;16.25;;;;;;;8.85;64.63;99405.14;1813269;77;21101;-54
2022/03/30 04:45:55;;;;;;;21.60;13.68;;;;;;;8.79;64.33;99403.86;1812195;77;21378;-53
2022/03/30 04:48:22;;;;;;;24.72;15.70;;;;;;;8.70;64.18;99403.38;1816692;77;21032;-53
2022/03/30 04:50:50;;;;;;;21.15;14.00;;;;;;;8.62;64.22;99411.91;1827708;77;21080;-54
2022/03/30 04:53:17;;;;;;;24.45;13.18;;;;;;;8.58;64.30;99416.27;1839463;77;21031;-53
2022/03/30 04:55:45;;;;;;;19.10;13.22;;;;;;;8.61;64.25;99405.02;1832854;77;21015;-54
2022/03/30 04:58:11;;;;;;;22.95;14.00;;;;;;;8.63;64.16;99416.20;1828955;77;21054;-54
2022/03/30 05:00:38;;;;;;;23.83;14.43;;;;;;;8.65;64.16;99420.82;1826768;77;20967;-54
2022/03/30 05:03:07;;;;;;;21.10;13.40;;;;;;;8.65;64.12;99418.69;1825448;77;21022;-54
2022/03/30 05:05:33;;;;;;;25.43;15.58;;;;;;;8.64;64.14;99415.70;1809897;77;21089;-54
2022/03/30 05:08:00;;;;;;;19.32;13.62;;;;;;;8.63;64.22;99421.44;1815332;77;21049;-54
2022/03/30 05:10:28;;;;;;;22.35;14.98;;;;;;;8.65;64.34;99415.58;1810221;77;21525;-54
2022/03/30 05:12:55;;;;;;;21.15;14.00;;;;;;;8.68;64.41;99422.36;1824853;78;21030;-53
2022/03/30 05:15:24;;;;;;;20.48;13.65;;;;;;;8.68;64.50;99417.94;1820305;77;20988;-54
2022/03/30 05:17:50;;;;;;;20.35;13.40;;;;;;;8.72;64.48;99418.03;1811077;77;20995;-54
2022/03/30 05:20:19;;;;;;;18.12;12.73;;;;;;;8.81;64.44;99425.56;1802423;77;21074;-54
2022/03/30 05:22:47;;;;;;;21.57;14.55;;;;;;;8.90;64.76;99419.50;1806354;77;21028;-53
2022/03/30 05:25:15;;;;;;;27.07;17.02;;;;;;;9.01;64.97;99422.50;1811629;77;21112;-54
2022/03/30 05:27:42;;;;;;;23.62;17.77;;;;;;;9.14;64.91;99420.08;1806141;77;21061;-54
2022/03/30 05:30:11;;;;;;;22.37;16.12;;;;;;;9.22;64.82;99429.41;1816391;77;21505;-54
2022/03/30 05:32:38;;;;;;;27.55;15.72;;;;;;;9.27;64.70;99428.02;1824471;77;21465;-53
2022/03/30 05:35:06;;;;;;;26.25;17.20;;;;;;;9.32;64.74;99426.30;1830450;77;21046;-53
2022/03/30 05:37:33;;;;;;;25.43;15.65;;;;;;;9.36;64.72;99428.16;1825824;77;21038;-54
2022/03/30 05:40:00;;;;;;;25.80;16.60;;;;;;;9.36;64.76;99419.80;1830579;77;22024;-54
2022/03/30 05:42:27;;;;;;;23.50;14.85;;;;;;;9.38;65.04;99421.82;1836347;77;21074;-54
2022/03/30 05:44:54;;;;;;;22.02;13.98;;;;;;;9.40;65.27;99427.75;1837487;77;21057;-53
2022/03/30 05:47:21;;;;;;;25.20;14.63;;;;;;;9.42;64.79;99425.81;1828047;77;21127;-54
2022/03/30 05:49:48;;;;;;;18.55;12.78;;;;;;;9.51;64.03;99425.95;1789491;78;21068;-54
2022/03/30 05:52:14;;;;;;;19.73;13.28;;;;;;;9.54;63.69;99425.68;1790861;78;21144;-53
2022/03/30 05:54:41;;;;;;;25.57;14.63;;;;;;;9.59;63.57;99426.09;1788895;79;21098;-53
2022/03/30 05:57:08;;;;;;;20.70;14.58;;;;;;;9.64;63.43;99429.12;1783695;78;21054;-54
2022/03/30 05:59:38;;;;;;;22.27;15.70;;;;;;;9.67;63.40;99432.29;1788281;79;21100;-54
2022/03/30 06:02:06;;;;;;;21.75;14.50;;;;;;;9.71;63.46;99434.64;1761180;80;21035;-54
2022/03/30 06:04:33;;;;;;;22.48;14.07;;;;;;;9.72;63.20;99431.06;1790367;80;21131;-54
2022/03/30 06:07:00;;;;;;;26.00;15.32;;;;;;;9.73;62.72;99432.20;1789530;79;21062;-54
2022/03/30 06:09:33;;;;;;;21.05;14.50;;;;;;;9.70;62.41;99432.51;1789052;78;21548;-53
2022/03/30 06:11:58;;;;;;;22.15;13.68;;;;;;;9.65;62.15;99430.79;1766613;80;21495;-54
2022/03/30 06:14:27;;;;;;;22.13;15.18;;;;;;;9.61;62.23;99433.34;1778181;79;21493;-55
2022/03/30 06:16:53;;;;;;;22.85;14.30;;;;;;;9.57;62.21;99428.03;1790341;80;21206;-54
2022/03/30 06:19:21;;;;;;;19.80;14.10;;;;;;;9.58;62.42;99429.67;1774558;79;20970;-54
2022/03/30 06:21:49;;;;;;;23.62;14.28;;;;;;;9.63;62.69;99425.67;1794896;79;21333;-54
2022/03/30 06:24:15;;;;;;;24.15;14.68;;;;;;;9.73;62.56;99432.20;1794405;78;20979;-54
2022/03/30 06:26:43;;;;;;;21.45;13.85;;;;;;;9.84;62.18;99432.05;1767522;79;21061;-54
2022/03/30 06:29:09;;;;;;;22.65;15.28;;;;;;;9.92;62.14;99437.08;1758784;80;21087;-54
2022/03/30 06:31:36;;;;;;;20.57;14.78;;;;;;;9.97;62.16;99430.45;1765485;80;21560;-54
2022/03/30 06:34:03;;;;;;;21.45;14.47;;;;;;;10.06;62.17;99423.50;1794244;78;21515;-54
2022/03/30 06:36:30;;;;;;;24.65;15.48;;;;;;;10.11;61.65;99423.89;1787098;80;21163;-54
2022/03/30 06:38:58;;;;;;;22.05;15.40;;;;;;;10.14;61.48;99428.87;1782535;78;21682;-54
2022/03/30 06:41:25;;;;;;;24.45;14.85;;;;;;;10.14;61.20;99428.05;1787711;80;22978;-54
2022/03/30 06:43:52;;;;;;;21.15;15.00;;;;;;;10.16;61.30;99424.30;1785162;78;21627;-54
2022/03/30 06:46:19;;;;;;;25.50;16.30;;;;;;;10.21;61.33;99424.69;1779012;79;21084;-54
2022/03/30 06:48:47;;;;;;;22.17;15.38;;;;;;;10.27;61.37;99423.30;1785027;78;21037;-54
2022/03/30 06:51:15;;;;;;;24.35;14.85;;;;;;;10.33;61.29;99425.36;1782988;79;20990;-54
2022/03/30 06:53:42;;;;;;;25.90;15.45;;;;;;;10.38;61.28;99429.70;1783644;78;21925;-54
2022/03/30 06:56:09;;;;;;;25.02;14.93;;;;;;;10.44;60.68;99436.66;1782047;80;21046;-54
2022/03/30 06:58:36;;;;;;;27.82;16.25;;;;;;;10.39;59.99;99437.13;1781542;78;21081;-54
2022/03/30 07:01:03;;;;;;;18.95;13.65;;;;;;;10.35;60.18;99435.24;1780917;78;21505;-54
2022/03/30 07:03:30;;;;;;;18.02;12.73;;;;;;;10.44;60.26;99437.52;1781353;79;21045;-54
2022/03/30 07:05:57;;;;;;;21.10;13.68;;;;;;;10.58;59.69;99439.65;1780405;79;21217;-54
2022/03/30 07:11:12;;;;;;;17.60;13.08;;;;;;;10.76;59.15;99439.70;1786301;78;21056;-54
2022/03/30 07:13:40;;;;;;;20.35;13.48;;;;;;;10.85;58.62;99441.11;1766432;78;21092;-54
2022/03/30 07:16:08;;;;;;;18.20;12.07;;;;;;;10.94;57.78;99443.69;1789557;78;21076;-54
2022/03/30 07:18:36;;;;;;;22.48;14.47;;;;;;;10.98;56.66;99444.22;1785600;78;21130;-54
2022/03/30 07:21:04;;;;;;;21.85;13.75;;;;;;;10.97;56.49;99440.73;1784418;78;21046;-54
2022/03/30 07:23:31;;;;;;;21.50;13.55;;;;;;;11.01;55.51;99449.19;1783501;78;21081;-54
2022/03/30 07:26:00;;;;;;;24.67;14.25;;;;;;;11.02;54.97;99444.25;1782671;80;21073;-54
2022/03/30 07:28:28;;;;;;;21.33;13.43;;;;;;;11.04;54.34;99452.00;1780523;78;21096;-54
2022/03/30 07:30:55;;;;;;;25.00;14.80;;;;;;;11.06;53.97;99450.04;1795018;79;21186;-54
2022/03/30 07:33:23;;;;;;;28.02;14.30;;;;;;;11.05;54.00;99447.91;1787565;79;21076;-54
2022/03/30 07:35:50;;;;;;;23.65;15.53;;;;;;;11.09;53.36;99448.43;1793990;79;21085;-54
2022/03/30 07:38:18;;;;;;;24.77;14.80;;;;;;;11.12;53.16;99453.41;1789926;78;21184;-54
2022/03/30 07:40:47;;;;;;;22.50;14.68;;;;;;;11.18;53.53;99455.45;1774338;80;21480;-54
2022/03/30 07:43:15;;;;;;;22.58;14.58;;;;;;;11.20;52.39;99454.80;1791004;79;21086;-54
2022/03/30 07:45:43;;;;;;;22.32;13.58;;;;;;;11.20;52.52;99456.12;1767096;80;21059;-54
2022/03/30 07:48:10;;;;;;;21.55;15.10;;;;;;;11.22;52.56;99462.55;1796982;79;21527;-54
2022/03/30 07:50:37;;;;;;;21.30;13.80;;;;;;;11.20;52.17;99460.07;1792536;78;20998;-54
2022/03/30 07:53:07;;;;;;;22.67;13.65;;;;;;;11.19;52.42;99461.53;1777892;80;21105;-54
2022/03/30 07:55:35;;;;;;;19.55;14.18;;;;;;;11.16;52.38;99463.96;1776252;80;21111;-54
2022/03/30 07:58:02;;;;;;;25.68;13.48;;;;;;;11.14;52.37;99460.66;1774720;80;21085;-54
2022/03/30 08:00:29;;;;;;;18.42;13.08;;;;;;;11.13;52.09;99457.70;1768522;79;21085;-54
2022/03/30 08:02:56;;;;;;;21.82;12.47;;;;;;;11.10;52.05;99459.31;1771170;80;21759;-54
2022/03/30 08:05:23;;;;;;;19.80;12.73;;;;;;;11.08;51.93;99463.91;1779960;80;21090;-54
2022/03/30 08:07:51;;;;;;;22.60;13.40;;;;;;;11.07;52.12;99459.61;1778022;80;21182;-54
2022/03/30 08:10:19;;;;;;;20.80;12.50;;;;;;;11.07;52.03;99460.42;1779759;80;21082;-54
2022/03/30 08:12:47;;;;;;;20.75;12.65;;;;;;;11.11;52.12;99461.80;1774638;79;21462;-54
2022/03/30 08:15:14;;;;;;;22.70;13.25;;;;;;;11.10;51.88;99464.08;1778836;80;22200;-53
2022/03/30 08:17:42;;;;;;;21.48;12.80;;;;;;;11.11;51.88;99469.70;1775620;79;21545;-54
2022/03/30 08:20:12;;;;;;;25.50;13.45;;;;;;;11.11;51.98;99470.16;1747521;80;21244;-54
2022/03/30 08:22:40;;;;;;;18.70;12.25;;;;;;;11.12;52.11;99470.52;1768686;80;21046;-54
2022/03/30 08:25:07;;;;;;;21.35;12.25;;;;;;;11.13;51.94;99476.13;1770523;80;21039;-55
2022/03/30 08:27:34;;;;;;;20.43;13.20;;;;;;;11.12;51.98;99473.97;1765760;80;21337;-54
2022/03/30 08:30:04;;;;;;;23.57;13.22;;;;;;;11.13;52.15;99477.45;1755753;80;21051;-54
2022/03/30 08:32:30;;;;;;;20.25;13.08;;;;;;;11.11;52.64;99471.48;1755558;79;21764;-54
2022/03/30 08:34:57;;;;;;;24.60;14.00;;;;;;;11.11;52.86;99470.16;1751904;80;21047;-54
2022/03/30 08:37:24;;;;;;;21.05;12.50;;;;;;;11.11;53.18;99472.80;1766798;80;21525;-54
2022/03/30 08:39:53;;;;;;;18.12;12.55;;;;;;;11.12;53.38;99474.47;1761296;80;21085;-55
2022/03/30 08:42:20;;;;;;;18.82;12.55;;;;;;;11.12;53.69;99479.23;1769008;80;21049;-54
2022/03/30 08:44:49;;;;;;;19.48;12.63;;;;;;;11.12;54.20;99482.36;1775219;79;21132;-54
2022/03/30 08:47:16;;;;;;;21.50;13.20;;;;;;;11.16;54.36;99481.08;1770532;80;21015;-54
2022/03/30 08:49:45;;;;;;;19.23;12.10;;;;;;;11.18;54.33;99484.41;1775748;80;21588;-54
2022/03/30 08:52:11;;;;;;;16.77;12.07;;;;;;;11.21;54.35;99485.91;1778942;79;21039;-54
2022/03/30 08:54:43;;;;;;;33.15;20.75;;;;;;;11.25;54.56;99488.59;1766145;79;21686;-54
2022/03/30 08:57:11;;;;;;;41.95;24.80;;;;;;;11.31;54.30;99487.98;1782627;79;21086;-54
2022/03/30 08:59:38;;;;;;;38.78;20.25;;;;;;;11.34;53.91;99488.50;1766670;80;21050;-54
2022/03/30 09:02:07;;;;;;;28.60;14.68;;;;;;;11.39;53.92;99482.80;1771963;80;21524;-54
2022/03/30 09:04:33;;;;;;;23.90;14.80;;;;;;;11.45;53.93;99472.17;1752364;80;21043;-54
2022/03/30 09:07:00;;;;;;;23.83;13.43;;;;;;;11.52;53.76;99463.98;1776130;80;21073;-54
2022/03/30 09:09:33;;;;;;;22.85;15.32;;;;;;;11.60;53.65;99468.48;1768084;80;21138;-54
2022/03/30 09:12:01;;;;;;;28.60;16.95;;;;;;;11.63;52.50;99469.03;1777178;80;21090;-54
2022/03/30 09:14:31;;;;;;;29.40;16.67;;;;;;;11.63;52.37;99463.77;1779081;79;21084;-54
2022/03/30 09:17:02;;;;;;;25.02;18.10;;;;;;;11.65;52.04;99467.06;1779387;80;21494;-54
2022/03/30 09:19:30;;;;;;;27.75;15.55;;;;;;;11.64;51.76;99468.53;1777994;79;21517;-54
2022/03/30 09:21:58;;;;;;;26.55;18.75;;;;;;;11.63;51.72;99474.77;1782862;80;21240;-54
2022/03/30 09:24:29;;;;;;;31.80;18.55;;;;;;;11.58;51.82;99465.17;1773731;79;21094;-54
2022/03/30 09:26:57;;;;;;;26.15;17.15;;;;;;;11.58;52.22;99471.77;1778129;78;21109;-54
2022/03/30 09:29:27;;;;;;;29.85;17.25;;;;;;;11.58;52.21;99471.27;1769893;79;21054;-54
2022/03/30 09:31:54;;;;;;;25.32;17.00;;;;;;;11.58;52.10;99471.27;1783073;80;21093;-54
2022/03/30 09:34:21;;;;;;;26.68;17.25;;;;;;;11.59;52.12;99475.56;1766728;79;21127;-54
2022/03/30 09:36:51;;;;;;;28.30;17.32;;;;;;;11.60;52.31;99471.97;1779703;79;21102;-54
2022/03/30 09:39:30;;;;;;;29.18;16.23;;;;;;;11.58;52.71;99471.27;1776313;80;21070;-54
2022/03/30 09:41:59;;;;;;;23.87;15.43;;;;;;;11.58;53.33;99469.95;1783297;80;21612;-54
2022/03/30 09:44:29;;;;;;;22.55;15.03;;;;;;;11.61;53.74;99468.83;1794965;79;21602;-54
2022/03/30 09:47:07;;;;;;;25.55;16.07;;;;;;;11.60;53.92;99464.06;1764192;79;21409;-54
2022/03/30 09:49:41;;;;;;;22.02;13.08;;;;;;;11.60;54.32;99461.89;1786477;78;21154;-52
2022/03/30 09:52:22;;;;;;;19.10;12.90;;;;;;;11.56;53.97;99468.46;1775204;78;21127;-52
2022/03/30 09:55:04;;;;;;;19.32;11.90;;;;;;;11.43;54.15;99473.63;1792911;79;21485;-52
2022/03/30 09:57:40;;;;;;;17.65;11.57;;;;;;;11.32;54.47;99477.30;1795403;78;21568;-52
2022/03/30 10:00:18;;;;;;;15.65;10.80;;;;;;;11.23;54.85;99482.16;1791497;79;21044;-52
2022/03/30 10:02:48;;;;;;;17.60;11.63;;;;;;;11.17;55.05;99480.61;1797055;79;21103;-53
2022/03/30 10:05:19;;;;;;;16.87;10.45;;;;;;;11.10;55.39;99479.06;1794662;78;21108;-52
2022/03/30 10:07:46;;;;;;;21.35;12.82;;;;;;;11.07;55.74;99490.70;1796659;79;21640;-52
2022/03/30 10:10:16;;;;;;;15.95;10.82;;;;;;;11.05;55.91;99478.67;1797281;78;21009;-53
2022/03/30 10:12:43;;;;;;;17.40;10.98;;;;;;;11.00;55.98;99490.95;1775500;80;21761;-53
2022/03/30 10:15:12;;;;;;;17.73;11.35;;;;;;;10.93;56.02;99489.41;1772041;80;21469;-53
2022/03/30 10:17:38;;;;;;;19.25;10.98;;;;;;;10.85;56.41;99492.43;1776157;80;21126;-52
2022/03/30 10:20:08;;;;;;;18.57;11.93;;;;;;;10.76;56.62;99491.52;1771874;79;21059;-52
2022/03/30 10:23:15;;;;;;;17.02;11.63;;;;;;;10.72;56.85;99490.95;1775506;79;21125;-52
2022/03/30 10:26:13;;;;;;;19.62;11.18;;;;;;;10.68;57.05;99490.91;1770945;79;21245;-52
2022/03/30 10:28:57;;;;;;;18.02;10.85;;;;;;;10.66;57.44;99497.28;1761113;80;21074;-53
2022/03/30 10:31:26;;;;;;;20.90;11.88;;;;;;;10.63;57.71;99502.85;1771630;80;21042;-52
2022/03/30 10:33:53;;;;;;;16.65;11.80;;;;;;;10.57;57.94;99498.98;1768736;79;21113;-52
2022/03/30 10:36:30;;;;;;;17.75;11.88;;;;;;;10.49;58.41;99489.20;1802581;79;21026;-54
2022/03/30 10:39:18;;;;;;;18.23;11.50;;;;;;;10.47;58.79;99492.93;1790280;78;21219;-52
2022/03/30 10:41:58;;;;;;;20.85;11.10;;;;;;;10.55;58.94;99491.72;1791489;78;21070;-52
2022/03/30 10:44:45;;;;;;;18.17;11.28;;;;;;;10.66;59.10;99490.70;1760809;79;21084;-52
2022/03/30 10:47:23;;;;;;;19.35;12.25;;;;;;;10.74;59.12;99490.80;1787554;79;21065;-53
2022/03/30 10:49:57;;;;;;;20.17;11.73;;;;;;;10.82;59.09;99496.17;1761893;81;21083;-52
2022/03/30 10:52:38;;;;;;;20.37;12.65;;;;;;;10.90;58.39;99486.23;1765743;81;21058;-52
2022/03/30 10:55:19;;;;;;;22.73;11.97;;;;;;;10.92;57.97;99486.41;1787620;78;21088;-53
2022/03/30 10:58:01;;;;;;;21.42;12.40;;;;;;;10.96;57.77;99485.63;1765611;79;21113;-53
2022/03/30 11:00:34;;;;;;;18.82;13.28;;;;;;;10.92;57.89;99478.52;1765676;80;21035;-54
2022/03/30 11:03:20;;;;;;;21.05;12.35;;;;;;;10.91;58.63;99488.73;1770753;80;21056;-53
2022/03/30 11:06:07;;;;;;;22.07;12.93;;;;;;;10.89;59.12;99488.52;1787047;78;21489;-53
2022/03/30 11:08:46;;;;;;;21.73;12.80;;;;;;;10.85;59.71;99489.80;1784793;79;21064;-53
2022/03/30 11:11:42;;;;;;;19.95;12.50;;;;;;;10.80;59.70;99489.41;1787770;79;20998;-54
2022/03/30 11:14:39;;;;;;;19.40;13.08;;;;;;;10.74;59.99;99483.76;1784367;78;21045;-53
2022/03/30 11:17:12;;;;;;;19.80;12.60;;;;;;;10.69;59.90;99496.53;1771737;80;21568;-53
2022/03/30 11:19:59;;;;;;;18.42;11.25;;;;;;;10.60;59.67;99499.52;1778462;79;22905;-53
2022/03/30 11:22:30;;;;;;;17.32;11.80;;;;;;;10.50;59.82;99484.26;1763306;81;21466;-53
2022/03/30 11:25:20;;;;;;;20.27;11.33;;;;;;;10.45;60.14;99486.50;1757789;81;21086;-53
2022/03/30 11:28:03;;;;;;;17.20;10.65;;;;;;;10.44;60.25;99489.27;1764315;81;21083;-53
2022/03/30 11:30:38;;;;;;;18.80;10.32;;;;;;;10.46;60.34;99492.61;1757265;81;21039;-53
2022/03/30 11:33:22;;;;;;;19.92;11.28;;;;;;;10.46;60.59;99489.97;1760591;79;21117;-53
2022/03/30 11:35:52;;;;;;;18.10;11.20;;;;;;;10.46;60.50;99492.61;1753195;81;21101;-54
2022/03/30 11:38:25;;;;;;;16.55;11.18;;;;;;;10.41;60.28;99493.84;1761214;79;21086;-53
2022/03/30 11:41:05;;;;;;;18.30;11.08;;;;;;;10.38;60.39;99494.12;1763670;81;21023;-54